sensor_id;sensor_type;location;lat;lon;timestamp;P1;durP1;ratioP1;P2;durP2;ratioP2
44098;SDS011;29762;50.086;14.364;2023-02-01T00:02:11;2.35;;;1.20;;
44098;SDS011;29762;50.086;14.364;2023-02-01T00:07:31;3.72;;;1.30;;
44098;SDS011;29762;50.086;14.364;2023-02-01T00:12:50;3.10;;;1.30;;
44098;SDS011;29762;50.086;14.364;2023-02-01T00:18:09;3.15;;;1.40;;
44098;SDS011;29762;50.086;14.364;2023-02-01T00:23:31;3.03;;;1.30;;
44098;SDS011;29762;50.086;14.364;2023-02-01T00:28:53;2.55;;;1.23;;
44098;SDS011;29762;50.086;14.364;2023-02-01T00:34:14;2.20;;;1.33;;
44098;SDS011;29762;50.086;14.364;2023-02-01T00:39:34;2.50;;;1.20;;
44098;SDS011;29762;50.086;14.364;2023-02-01T00:44:53;2.22;;;1.00;;
44098;SDS011;29762;50.086;14.364;2023-02-01T00:50:13;2.58;;;1.20;;
44098;SDS011;29762;50.086;14.364;2023-02-01T00:55:32;2.13;;;1.08;;
44098;SDS011;29762;50.086;14.364;2023-02-01T01:06:43;2.45;;;1.20;;
44098;SDS011;29762;50.086;14.364;2023-02-01T01:12:02;2.20;;;1.27;;
44098;SDS011;29762;50.086;14.364;2023-02-01T01:17:23;1.85;;;1.10;;
44098;SDS011;29762;50.086;14.364;2023-02-01T01:22:43;2.13;;;1.00;;
44098;SDS011;29762;50.086;14.364;2023-02-01T01:28:02;2.28;;;1.20;;
44098;SDS011;29762;50.086;14.364;2023-02-01T01:33:22;1.85;;;0.98;;
44098;SDS011;29762;50.086;14.364;2023-02-01T01:38:41;1.70;;;0.90;;
44098;SDS011;29762;50.086;14.364;2023-02-01T01:44:03;1.67;;;0.82;;
44098;SDS011;29762;50.086;14.364;2023-02-01T01:49:23;1.63;;;0.90;;
44098;SDS011;29762;50.086;14.364;2023-02-01T01:54:45;2.17;;;1.10;;
44098;SDS011;29762;50.086;14.364;2023-02-01T02:00:07;1.52;;;1.08;;
44098;SDS011;29762;50.086;14.364;2023-02-01T02:05:34;2.08;;;0.98;;
44098;SDS011;29762;50.086;14.364;2023-02-01T02:10:54;2.10;;;1.05;;
44098;SDS011;29762;50.086;14.364;2023-02-01T02:50:29;2.25;;;0.93;;
44098;SDS011;29762;50.086;14.364;2023-02-01T02:56:11;2.08;;;1.17;;
44098;SDS011;29762;50.086;14.364;2023-02-01T03:01:51;1.65;;;0.82;;
44098;SDS011;29762;50.086;14.364;2023-02-01T03:13:20;1.38;;;0.90;;
44098;SDS011;29762;50.086;14.364;2023-02-01T03:19:03;1.80;;;0.82;;
44098;SDS011;29762;50.086;14.364;2023-02-01T03:24:37;1.20;;;0.77;;
44098;SDS011;29762;50.086;14.364;2023-02-01T03:30:10;1.23;;;0.85;;
44098;SDS011;29762;50.086;14.364;2023-02-01T03:35:44;1.08;;;0.80;;
44098;SDS011;29762;50.086;14.364;2023-02-01T03:41:16;1.23;;;0.60;;
44098;SDS011;29762;50.086;14.364;2023-02-01T03:46:42;1.20;;;0.63;;
44098;SDS011;29762;50.086;14.364;2023-02-01T03:52:09;1.08;;;0.70;;
44098;SDS011;29762;50.086;14.364;2023-02-01T03:57:33;1.33;;;0.70;;
44098;SDS011;29762;50.086;14.364;2023-02-01T04:02:54;1.50;;;0.70;;
44098;SDS011;29762;50.086;14.364;2023-02-01T04:08:14;0.80;;;0.60;;
44098;SDS011;29762;50.086;14.364;2023-02-01T04:13:34;0.85;;;0.70;;
44098;SDS011;29762;50.086;14.364;2023-02-01T04:18:53;2.20;;;0.70;;
44098;SDS011;29762;50.086;14.364;2023-02-01T04:24:12;1.05;;;0.73;;
44098;SDS011;29762;50.086;14.364;2023-02-01T04:29:32;0.80;;;0.60;;
44098;SDS011;29762;50.086;14.364;2023-02-01T04:34:52;0.82;;;0.73;;
44098;SDS011;29762;50.086;14.364;2023-02-01T04:40:11;1.05;;;0.80;;
44098;SDS011;29762;50.086;14.364;2023-02-01T04:45:31;1.05;;;0.60;;
44098;SDS011;29762;50.086;14.364;2023-02-01T04:50:50;1.05;;;0.63;;
44098;SDS011;29762;50.086;14.364;2023-02-01T04:56:10;0.90;;;0.70;;
44098;SDS011;29762;50.086;14.364;2023-02-01T05:01:30;0.98;;;0.60;;
44098;SDS011;29762;50.086;14.364;2023-02-01T05:06:49;1.00;;;0.60;;
44098;SDS011;29762;50.086;14.364;2023-02-01T05:12:09;1.05;;;0.60;;
44098;SDS011;29762;50.086;14.364;2023-02-01T05:17:47;0.93;;;0.60;;
44098;SDS011;29762;50.086;14.364;2023-02-01T05:23:07;0.70;;;0.50;;
44098;SDS011;29762;50.086;14.364;2023-02-01T05:28:27;1.15;;;0.60;;
44098;SDS011;29762;50.086;14.364;2023-02-01T05:33:47;0.82;;;0.60;;
44098;SDS011;29762;50.086;14.364;2023-02-01T05:39:07;1.23;;;0.68;;
44098;SDS011;29762;50.086;14.364;2023-02-01T05:44:26;1.23;;;0.70;;
44098;SDS011;29762;50.086;14.364;2023-02-01T05:49:46;3.22;;;0.60;;
44098;SDS011;29762;50.086;14.364;2023-02-01T05:55:05;1.05;;;0.60;;
44098;SDS011;29762;50.086;14.364;2023-02-01T06:00:25;1.75;;;0.70;;
44098;SDS011;29762;50.086;14.364;2023-02-01T06:05:45;0.52;;;0.50;;
44098;SDS011;29762;50.086;14.364;2023-02-01T06:11:05;1.63;;;0.50;;
44098;SDS011;29762;50.086;14.364;2023-02-01T06:16:25;1.02;;;0.65;;
44098;SDS011;29762;50.086;14.364;2023-02-01T06:21:44;0.77;;;0.50;;
44098;SDS011;29762;50.086;14.364;2023-02-01T06:27:04;1.02;;;0.60;;
44098;SDS011;29762;50.086;14.364;2023-02-01T06:32:23;1.00;;;0.50;;
44098;SDS011;29762;50.086;14.364;2023-02-01T06:37:43;1.67;;;0.50;;
44098;SDS011;29762;50.086;14.364;2023-02-01T06:43:02;0.50;;;0.40;;
44098;SDS011;29762;50.086;14.364;2023-02-01T06:48:22;2.22;;;0.70;;
44098;SDS011;29762;50.086;14.364;2023-02-01T06:53:41;0.73;;;0.55;;
44098;SDS011;29762;50.086;14.364;2023-02-01T06:59:03;1.75;;;0.40;;
44098;SDS011;29762;50.086;14.364;2023-02-01T07:04:23;1.90;;;0.52;;
44098;SDS011;29762;50.086;14.364;2023-02-01T07:09:42;0.75;;;0.50;;
44098;SDS011;29762;50.086;14.364;2023-02-01T07:15:02;0.65;;;0.40;;
44098;SDS011;29762;50.086;14.364;2023-02-01T07:20:22;0.85;;;0.40;;
44098;SDS011;29762;50.086;14.364;2023-02-01T07:25:42;1.35;;;0.70;;
44098;SDS011;29762;50.086;14.364;2023-02-01T07:31:05;0.80;;;0.60;;
44098;SDS011;29762;50.086;14.364;2023-02-01T07:36:29;1.40;;;0.50;;
44098;SDS011;29762;50.086;14.364;2023-02-01T07:41:48;1.00;;;0.60;;
44098;SDS011;29762;50.086;14.364;2023-02-01T07:47:08;2.42;;;0.50;;
44098;SDS011;29762;50.086;14.364;2023-02-01T07:52:27;0.60;;;0.47;;
44098;SDS011;29762;50.086;14.364;2023-02-01T07:57:48;1.42;;;0.40;;
44098;SDS011;29762;50.086;14.364;2023-02-01T08:03:07;0.50;;;0.40;;
44098;SDS011;29762;50.086;14.364;2023-02-01T08:08:27;0.50;;;0.40;;
44098;SDS011;29762;50.086;14.364;2023-02-01T08:13:46;0.40;;;0.40;;
44098;SDS011;29762;50.086;14.364;2023-02-01T08:19:06;0.47;;;0.40;;
44098;SDS011;29762;50.086;14.364;2023-02-01T08:24:26;0.80;;;0.57;;
44098;SDS011;29762;50.086;14.364;2023-02-01T08:29:45;1.63;;;0.60;;
44098;SDS011;29762;50.086;14.364;2023-02-01T08:35:05;2.13;;;0.43;;
44098;SDS011;29762;50.086;14.364;2023-02-01T08:40:25;45.65;;;29.95;;
44098;SDS011;29762;50.086;14.364;2023-02-01T08:45:44;13.02;;;9.05;;
44098;SDS011;29762;50.086;14.364;2023-02-01T08:51:04;11.13;;;6.88;;
44098;SDS011;29762;50.086;14.364;2023-02-01T08:56:25;8.77;;;5.95;;
44098;SDS011;29762;50.086;14.364;2023-02-01T09:01:44;6.22;;;4.82;;
44098;SDS011;29762;50.086;14.364;2023-02-01T09:07:04;5.32;;;4.10;;
44098;SDS011;29762;50.086;14.364;2023-02-01T09:12:23;6.15;;;3.95;;
44098;SDS011;29762;50.086;14.364;2023-02-01T09:17:43;6.35;;;4.10;;
44098;SDS011;29762;50.086;14.364;2023-02-01T09:23:02;4.65;;;3.63;;
44098;SDS011;29762;50.086;14.364;2023-02-01T09:28:21;4.05;;;3.30;;
44098;SDS011;29762;50.086;14.364;2023-02-01T09:33:41;4.65;;;3.38;;
44098;SDS011;29762;50.086;14.364;2023-02-01T09:39:00;4.82;;;3.30;;
44098;SDS011;29762;50.086;14.364;2023-02-01T09:44:36;4.78;;;3.13;;
44098;SDS011;29762;50.086;14.364;2023-02-01T09:50:11;2.90;;;2.60;;
44098;SDS011;29762;50.086;14.364;2023-02-01T10:00:58;3.50;;;2.65;;
44098;SDS011;29762;50.086;14.364;2023-02-01T10:29:04;3.35;;;2.63;;
44098;SDS011;29762;50.086;14.364;2023-02-01T10:34:35;3.08;;;2.50;;
44098;SDS011;29762;50.086;14.364;2023-02-01T10:39:56;3.13;;;2.20;;
44098;SDS011;29762;50.086;14.364;2023-02-01T10:45:19;4.15;;;2.10;;
44098;SDS011;29762;50.086;14.364;2023-02-01T10:50:49;2.55;;;2.08;;
44098;SDS011;29762;50.086;14.364;2023-02-01T10:56:12;3.47;;;2.60;;
44098;SDS011;29762;50.086;14.364;2023-02-01T11:01:42;2.95;;;2.15;;
44098;SDS011;29762;50.086;14.364;2023-02-01T11:07:07;2.47;;;2.00;;
44098;SDS011;29762;50.086;14.364;2023-02-01T11:12:34;3.08;;;2.13;;
44098;SDS011;29762;50.086;14.364;2023-02-01T11:17:55;2.30;;;2.10;;
44098;SDS011;29762;50.086;14.364;2023-02-01T11:23:15;2.40;;;2.10;;
44098;SDS011;29762;50.086;14.364;2023-02-01T11:28:38;2.70;;;1.95;;
44098;SDS011;29762;50.086;14.364;2023-02-01T11:33:59;2.10;;;1.75;;
44098;SDS011;29762;50.086;14.364;2023-02-01T11:39:32;2.20;;;1.60;;
44098;SDS011;29762;50.086;14.364;2023-02-01T11:45:09;2.60;;;1.90;;
44098;SDS011;29762;50.086;14.364;2023-02-01T11:50:52;2.10;;;1.90;;
44098;SDS011;29762;50.086;14.364;2023-02-01T11:56:22;1.90;;;1.70;;
44098;SDS011;29762;50.086;14.364;2023-02-01T12:35:47;2.13;;;1.92;;
44098;SDS011;29762;50.086;14.364;2023-02-01T12:46:43;3.30;;;1.90;;
44098;SDS011;29762;50.086;14.364;2023-02-01T12:52:13;31.73;;;18.17;;
44098;SDS011;29762;50.086;14.364;2023-02-01T12:57:40;35.55;;;21.40;;
44098;SDS011;29762;50.086;14.364;2023-02-01T13:03:48;31.30;;;19.10;;
44098;SDS011;29762;50.086;14.364;2023-02-01T13:19:53;25.15;;;15.27;;
44098;SDS011;29762;50.086;14.364;2023-02-01T13:25:17;23.85;;;14.70;;
44098;SDS011;29762;50.086;14.364;2023-02-01T13:31:00;23.70;;;13.67;;
44098;SDS011;29762;50.086;14.364;2023-02-01T13:42:55;20.40;;;12.30;;
44098;SDS011;29762;50.086;14.364;2023-02-01T13:48:45;21.92;;;12.27;;
44098;SDS011;29762;50.086;14.364;2023-02-01T13:54:23;16.50;;;11.00;;
44098;SDS011;29762;50.086;14.364;2023-02-01T14:05:11;17.92;;;10.52;;
44098;SDS011;29762;50.086;14.364;2023-02-01T14:10:57;18.08;;;10.15;;
44098;SDS011;29762;50.086;14.364;2023-02-01T14:16:17;16.27;;;10.00;;
44098;SDS011;29762;50.086;14.364;2023-02-01T14:21:46;14.75;;;9.65;;
44098;SDS011;29762;50.086;14.364;2023-02-01T14:32:39;12.68;;;8.90;;
44098;SDS011;29762;50.086;14.364;2023-02-01T14:38:00;15.75;;;9.38;;
44098;SDS011;29762;50.086;14.364;2023-02-01T14:43:48;14.23;;;9.57;;
44098;SDS011;29762;50.086;14.364;2023-02-01T14:49:09;13.85;;;8.65;;
44098;SDS011;29762;50.086;14.364;2023-02-01T14:54:29;13.15;;;8.32;;
44098;SDS011;29762;50.086;14.364;2023-02-01T14:59:48;13.68;;;8.45;;
44098;SDS011;29762;50.086;14.364;2023-02-01T15:11:09;12.05;;;7.88;;
44098;SDS011;29762;50.086;14.364;2023-02-01T15:16:33;10.48;;;8.18;;
44098;SDS011;29762;50.086;14.364;2023-02-01T15:21:53;12.30;;;7.75;;
44098;SDS011;29762;50.086;14.364;2023-02-01T15:27:16;10.50;;;7.63;;
44098;SDS011;29762;50.086;14.364;2023-02-01T15:32:39;11.05;;;7.55;;
44098;SDS011;29762;50.086;14.364;2023-02-01T15:49:05;11.05;;;7.28;;
44098;SDS011;29762;50.086;14.364;2023-02-01T15:54:43;11.75;;;6.90;;
44098;SDS011;29762;50.086;14.364;2023-02-01T16:05:53;8.52;;;6.53;;
44098;SDS011;29762;50.086;14.364;2023-02-01T16:11:22;10.00;;;6.50;;
44098;SDS011;29762;50.086;14.364;2023-02-01T16:16:52;9.73;;;6.45;;
44098;SDS011;29762;50.086;14.364;2023-02-01T16:22:14;8.85;;;5.47;;
44098;SDS011;29762;50.086;14.364;2023-02-01T16:27:34;10.65;;;6.50;;
44098;SDS011;29762;50.086;14.364;2023-02-01T16:32:53;10.00;;;6.28;;
44098;SDS011;29762;50.086;14.364;2023-02-01T16:38:15;8.00;;;5.75;;
44098;SDS011;29762;50.086;14.364;2023-02-01T16:43:38;9.57;;;6.10;;
44098;SDS011;29762;50.086;14.364;2023-02-01T16:48:58;8.95;;;5.65;;
44098;SDS011;29762;50.086;14.364;2023-02-01T16:54:18;8.60;;;5.53;;
44098;SDS011;29762;50.086;14.364;2023-02-01T16:59:38;9.50;;;6.10;;
44098;SDS011;29762;50.086;14.364;2023-02-01T17:04:58;9.10;;;5.68;;
44098;SDS011;29762;50.086;14.364;2023-02-01T17:10:20;9.20;;;5.28;;
44098;SDS011;29762;50.086;14.364;2023-02-01T17:15:46;6.70;;;4.88;;
44098;SDS011;29762;50.086;14.364;2023-02-01T17:21:11;7.07;;;4.90;;
44098;SDS011;29762;50.086;14.364;2023-02-01T17:26:30;7.43;;;4.82;;
44098;SDS011;29762;50.086;14.364;2023-02-01T17:31:53;6.28;;;4.55;;
44098;SDS011;29762;50.086;14.364;2023-02-01T17:37:24;8.23;;;4.90;;
44098;SDS011;29762;50.086;14.364;2023-02-01T17:42:48;5.53;;;4.10;;
44098;SDS011;29762;50.086;14.364;2023-02-01T17:48:08;8.88;;;4.63;;
44098;SDS011;29762;50.086;14.364;2023-02-01T17:53:28;6.65;;;4.20;;
44098;SDS011;29762;50.086;14.364;2023-02-01T17:58:48;6.60;;;4.47;;
44098;SDS011;29762;50.086;14.364;2023-02-01T18:04:11;7.10;;;4.40;;
44098;SDS011;29762;50.086;14.364;2023-02-01T18:09:31;5.97;;;3.95;;
44098;SDS011;29762;50.086;14.364;2023-02-01T18:14:51;6.80;;;3.75;;
44098;SDS011;29762;50.086;14.364;2023-02-01T18:20:13;6.07;;;3.58;;
44098;SDS011;29762;50.086;14.364;2023-02-01T18:25:35;6.15;;;4.20;;
44098;SDS011;29762;50.086;14.364;2023-02-01T18:30:56;4.82;;;3.42;;
44098;SDS011;29762;50.086;14.364;2023-02-01T18:36:16;5.50;;;4.00;;
44098;SDS011;29762;50.086;14.364;2023-02-01T18:41:36;6.38;;;4.18;;
44098;SDS011;29762;50.086;14.364;2023-02-01T18:46:56;5.43;;;3.58;;
44098;SDS011;29762;50.086;14.364;2023-02-01T18:52:19;7.93;;;4.15;;
44098;SDS011;29762;50.086;14.364;2023-02-01T18:57:38;4.85;;;3.47;;
44098;SDS011;29762;50.086;14.364;2023-02-01T19:02:58;8.05;;;3.83;;
44098;SDS011;29762;50.086;14.364;2023-02-01T19:08:18;4.72;;;3.05;;
44098;SDS011;29762;50.086;14.364;2023-02-01T19:13:38;6.22;;;3.25;;
44098;SDS011;29762;50.086;14.364;2023-02-01T19:18:58;4.45;;;3.13;;
44098;SDS011;29762;50.086;14.364;2023-02-01T19:24:17;5.85;;;3.45;;
44098;SDS011;29762;50.086;14.364;2023-02-01T19:29:38;4.78;;;3.10;;
44098;SDS011;29762;50.086;14.364;2023-02-01T19:34:58;5.13;;;3.50;;
44098;SDS011;29762;50.086;14.364;2023-02-01T19:40:19;6.35;;;3.22;;
44098;SDS011;29762;50.086;14.364;2023-02-01T19:45:39;6.35;;;3.50;;
44098;SDS011;29762;50.086;14.364;2023-02-01T19:51:00;5.72;;;3.13;;
44098;SDS011;29762;50.086;14.364;2023-02-01T19:56:19;6.03;;;3.45;;
44098;SDS011;29762;50.086;14.364;2023-02-01T20:01:39;4.63;;;3.20;;
44098;SDS011;29762;50.086;14.364;2023-02-01T20:06:58;6.20;;;3.15;;
44098;SDS011;29762;50.086;14.364;2023-02-01T20:12:18;4.90;;;3.10;;
44098;SDS011;29762;50.086;14.364;2023-02-01T20:17:39;5.68;;;3.03;;
44098;SDS011;29762;50.086;14.364;2023-02-01T20:22:58;4.40;;;2.78;;
44098;SDS011;29762;50.086;14.364;2023-02-01T20:28:18;4.63;;;3.00;;
44098;SDS011;29762;50.086;14.364;2023-02-01T20:33:39;4.65;;;2.75;;
44098;SDS011;29762;50.086;14.364;2023-02-01T20:38:58;4.65;;;3.03;;
44098;SDS011;29762;50.086;14.364;2023-02-01T20:44:18;4.53;;;2.47;;
44098;SDS011;29762;50.086;14.364;2023-02-01T20:49:37;4.03;;;2.95;;
44098;SDS011;29762;50.086;14.364;2023-02-01T20:54:58;6.10;;;2.60;;
44098;SDS011;29762;50.086;14.364;2023-02-01T21:00:18;4.88;;;2.70;;
44098;SDS011;29762;50.086;14.364;2023-02-01T21:05:39;4.28;;;2.70;;
44098;SDS011;29762;50.086;14.364;2023-02-01T21:16:23;7.18;;;3.50;;
44098;SDS011;29762;50.086;14.364;2023-02-01T21:21:42;8.40;;;3.67;;
44098;SDS011;29762;50.086;14.364;2023-02-01T21:27:02;8.15;;;3.85;;
44098;SDS011;29762;50.086;14.364;2023-02-01T21:32:22;9.23;;;3.97;;
44098;SDS011;29762;50.086;14.364;2023-02-01T21:37:41;9.90;;;4.30;;
44098;SDS011;29762;50.086;14.364;2023-02-01T21:43:02;8.90;;;4.20;;
44098;SDS011;29762;50.086;14.364;2023-02-01T21:48:22;8.15;;;4.43;;
44098;SDS011;29762;50.086;14.364;2023-02-01T21:53:42;7.55;;;3.83;;
44098;SDS011;29762;50.086;14.364;2023-02-01T21:59:01;7.32;;;3.72;;
44098;SDS011;29762;50.086;14.364;2023-02-01T22:04:21;6.93;;;3.83;;
44098;SDS011;29762;50.086;14.364;2023-02-01T22:09:41;8.20;;;3.92;;
44098;SDS011;29762;50.086;14.364;2023-02-01T22:15:00;7.45;;;3.30;;
44098;SDS011;29762;50.086;14.364;2023-02-01T22:20:20;7.15;;;3.63;;
44098;SDS011;29762;50.086;14.364;2023-02-01T22:25:39;6.05;;;2.83;;
44098;SDS011;29762;50.086;14.364;2023-02-01T22:31:02;4.43;;;2.95;;
44098;SDS011;29762;50.086;14.364;2023-02-01T22:36:23;5.93;;;3.13;;
44098;SDS011;29762;50.086;14.364;2023-02-01T22:41:43;5.75;;;3.00;;
44098;SDS011;29762;50.086;14.364;2023-02-01T22:47:02;5.75;;;2.75;;
44098;SDS011;29762;50.086;14.364;2023-02-01T22:52:22;4.70;;;2.63;;
44098;SDS011;29762;50.086;14.364;2023-02-01T22:57:41;4.57;;;2.72;;
44098;SDS011;29762;50.086;14.364;2023-02-01T23:03:01;5.30;;;3.08;;
44098;SDS011;29762;50.086;14.364;2023-02-01T23:08:20;6.05;;;2.65;;
44098;SDS011;29762;50.086;14.364;2023-02-01T23:13:39;5.05;;;2.90;;
44098;SDS011;29762;50.086;14.364;2023-02-01T23:18:59;4.93;;;2.53;;
44098;SDS011;29762;50.086;14.364;2023-02-01T23:24:18;5.18;;;2.92;;
44098;SDS011;29762;50.086;14.364;2023-02-01T23:29:38;4.07;;;2.70;;
44098;SDS011;29762;50.086;14.364;2023-02-01T23:34:58;3.17;;;2.25;;
44098;SDS011;29762;50.086;14.364;2023-02-01T23:40:18;6.03;;;2.67;;
44098;SDS011;29762;50.086;14.364;2023-02-01T23:45:37;3.20;;;2.20;;
44098;SDS011;29762;50.086;14.364;2023-02-01T23:50:57;3.80;;;2.40;;
44098;SDS011;29762;50.086;14.364;2023-02-01T23:56:21;3.40;;;2.28;;
